sensor_id;sensor_type;location;lat;lon;timestamp;P1;durP1;ratioP1;P2;durP2;ratioP2
69912;SDS011;57198;52.082;5.108;2022-08-19T00:01:45;4.75;;;4.00;;
69912;SDS011;57198;52.082;5.108;2022-08-19T00:04:19;4.45;;;4.03;;
69912;SDS011;57198;52.082;5.108;2022-08-19T00:06:47;4.50;;;4.07;;
69912;SDS011;57198;52.082;5.108;2022-08-19T00:09:15;4.65;;;4.20;;
69912;SDS011;57198;52.082;5.108;2022-08-19T00:11:43;4.43;;;4.03;;
69912;SDS011;57198;52.082;5.108;2022-08-19T00:14:11;4.57;;;4.15;;
69912;SDS011;57198;52.082;5.108;2022-08-19T00:16:38;6.45;;;4.20;;
69912;SDS011;57198;52.082;5.108;2022-08-19T00:19:07;4.90;;;4.18;;
69912;SDS011;57198;52.082;5.108;2022-08-19T00:21:35;6.43;;;4.40;;
69912;SDS011;57198;52.082;5.108;2022-08-19T00:24:06;4.30;;;3.77;;
69912;SDS011;57198;52.082;5.108;2022-08-19T00:26:34;4.75;;;3.85;;
69912;SDS011;57198;52.082;5.108;2022-08-19T00:29:02;3.80;;;3.50;;
69912;SDS011;57198;52.082;5.108;2022-08-19T00:31:30;4.75;;;4.18;;
69912;SDS011;57198;52.082;5.108;2022-08-19T00:33:57;4.68;;;4.28;;
69912;SDS011;57198;52.082;5.108;2022-08-19T00:36:25;3.17;;;2.97;;
69912;SDS011;57198;52.082;5.108;2022-08-19T00:38:52;4.57;;;3.47;;
69912;SDS011;57198;52.082;5.108;2022-08-19T00:41:20;5.38;;;4.13;;
69912;SDS011;57198;52.082;5.108;2022-08-19T00:46:24;5.28;;;3.80;;
69912;SDS011;57198;52.082;5.108;2022-08-19T00:48:52;5.57;;;3.70;;
69912;SDS011;57198;52.082;5.108;2022-08-19T00:51:19;4.70;;;3.60;;
69912;SDS011;57198;52.082;5.108;2022-08-19T00:53:46;4.10;;;3.42;;
69912;SDS011;57198;52.082;5.108;2022-08-19T00:56:13;5.38;;;3.55;;
69912;SDS011;57198;52.082;5.108;2022-08-19T00:58:41;5.65;;;4.10;;
69912;SDS011;57198;52.082;5.108;2022-08-19T01:01:09;6.43;;;4.93;;
69912;SDS011;57198;52.082;5.108;2022-08-19T01:03:37;4.82;;;4.32;;
69912;SDS011;57198;52.082;5.108;2022-08-19T01:06:22;6.15;;;5.13;;
69912;SDS011;57198;52.082;5.108;2022-08-19T01:08:49;5.75;;;5.18;;
69912;SDS011;57198;52.082;5.108;2022-08-19T01:11:17;5.18;;;4.78;;
69912;SDS011;57198;52.082;5.108;2022-08-19T01:13:44;6.70;;;5.90;;
69912;SDS011;57198;52.082;5.108;2022-08-19T01:16:16;7.07;;;6.40;;
69912;SDS011;57198;52.082;5.108;2022-08-19T01:18:43;7.63;;;6.90;;
69912;SDS011;57198;52.082;5.108;2022-08-19T01:21:34;8.63;;;6.50;;
69912;SDS011;57198;52.082;5.108;2022-08-19T01:23:58;8.52;;;7.18;;
69912;SDS011;57198;52.082;5.108;2022-08-19T01:26:26;10.10;;;7.57;;
69912;SDS011;57198;52.082;5.108;2022-08-19T01:28:57;12.13;;;9.35;;
69912;SDS011;57198;52.082;5.108;2022-08-19T01:31:27;14.80;;;11.73;;
69912;SDS011;57198;52.082;5.108;2022-08-19T01:33:59;15.38;;;13.70;;
69912;SDS011;57198;52.082;5.108;2022-08-19T01:36:34;16.75;;;13.75;;
69912;SDS011;57198;52.082;5.108;2022-08-19T01:39:03;22.03;;;17.43;;
69912;SDS011;57198;52.082;5.108;2022-08-19T01:41:31;22.48;;;18.00;;
69912;SDS011;57198;52.082;5.108;2022-08-19T01:43:59;20.27;;;17.02;;
69912;SDS011;57198;52.082;5.108;2022-08-19T01:46:44;19.33;;;16.27;;
69912;SDS011;57198;52.082;5.108;2022-08-19T01:49:13;18.88;;;15.55;;
69912;SDS011;57198;52.082;5.108;2022-08-19T01:51:40;21.10;;;17.23;;
69912;SDS011;57198;52.082;5.108;2022-08-19T01:54:08;17.38;;;14.88;;
69912;SDS011;57198;52.082;5.108;2022-08-19T01:56:36;17.95;;;15.52;;
69912;SDS011;57198;52.082;5.108;2022-08-19T01:59:05;20.08;;;17.02;;
69912;SDS011;57198;52.082;5.108;2022-08-19T02:01:33;17.52;;;15.65;;
69912;SDS011;57198;52.082;5.108;2022-08-19T02:04:01;17.83;;;14.10;;
69912;SDS011;57198;52.082;5.108;2022-08-19T02:06:29;18.27;;;15.63;;
69912;SDS011;57198;52.082;5.108;2022-08-19T02:08:56;21.83;;;16.90;;
69912;SDS011;57198;52.082;5.108;2022-08-19T02:11:28;19.80;;;16.10;;
69912;SDS011;57198;52.082;5.108;2022-08-19T02:13:57;15.88;;;14.18;;
69912;SDS011;57198;52.082;5.108;2022-08-19T02:16:25;17.07;;;14.47;;
69912;SDS011;57198;52.082;5.108;2022-08-19T02:18:52;15.45;;;13.57;;
69912;SDS011;57198;52.082;5.108;2022-08-19T02:21:20;21.98;;;18.45;;
69912;SDS011;57198;52.082;5.108;2022-08-19T02:23:48;17.65;;;15.07;;
69912;SDS011;57198;52.082;5.108;2022-08-19T02:26:16;17.38;;;14.73;;
69912;SDS011;57198;52.082;5.108;2022-08-19T02:28:43;17.07;;;13.67;;
69912;SDS011;57198;52.082;5.108;2022-08-19T02:31:15;18.08;;;15.23;;
69912;SDS011;57198;52.082;5.108;2022-08-19T02:33:44;17.70;;;14.15;;
69912;SDS011;57198;52.082;5.108;2022-08-19T02:36:12;17.15;;;13.50;;
69912;SDS011;57198;52.082;5.108;2022-08-19T02:38:42;14.75;;;12.20;;
69912;SDS011;57198;52.082;5.108;2022-08-19T02:41:21;21.33;;;14.43;;
69912;SDS011;57198;52.082;5.108;2022-08-19T02:43:52;17.55;;;13.93;;
69912;SDS011;57198;52.082;5.108;2022-08-19T02:46:39;20.45;;;15.25;;
69912;SDS011;57198;52.082;5.108;2022-08-19T02:49:07;20.05;;;14.32;;
69912;SDS011;57198;52.082;5.108;2022-08-19T02:51:35;19.23;;;15.00;;
69912;SDS011;57198;52.082;5.108;2022-08-19T02:54:04;19.30;;;16.30;;
69912;SDS011;57198;52.082;5.108;2022-08-19T02:56:33;22.75;;;16.83;;
69912;SDS011;57198;52.082;5.108;2022-08-19T02:59:01;17.65;;;14.50;;
69912;SDS011;57198;52.082;5.108;2022-08-19T03:01:32;17.05;;;14.10;;
69912;SDS011;57198;52.082;5.108;2022-08-19T03:04:00;19.25;;;15.20;;
69912;SDS011;57198;52.082;5.108;2022-08-19T03:06:29;16.80;;;14.73;;
69912;SDS011;57198;52.082;5.108;2022-08-19T03:08:57;18.83;;;14.32;;
69912;SDS011;57198;52.082;5.108;2022-08-19T03:11:26;17.90;;;13.88;;
69912;SDS011;57198;52.082;5.108;2022-08-19T03:13:53;16.75;;;13.82;;
69912;SDS011;57198;52.082;5.108;2022-08-19T03:16:23;18.90;;;15.30;;
69912;SDS011;57198;52.082;5.108;2022-08-19T03:18:51;17.07;;;14.57;;
69912;SDS011;57198;52.082;5.108;2022-08-19T03:21:20;18.02;;;15.95;;
69912;SDS011;57198;52.082;5.108;2022-08-19T03:23:47;19.55;;;15.45;;
69912;SDS011;57198;52.082;5.108;2022-08-19T03:26:15;19.88;;;15.82;;
69912;SDS011;57198;52.082;5.108;2022-08-19T03:28:45;23.90;;;16.05;;
69912;SDS011;57198;52.082;5.108;2022-08-19T03:31:23;22.83;;;16.27;;
69912;SDS011;57198;52.082;5.108;2022-08-19T03:34:11;20.65;;;16.02;;
69912;SDS011;57198;52.082;5.108;2022-08-19T03:36:39;21.98;;;16.95;;
69912;SDS011;57198;52.082;5.108;2022-08-19T03:39:07;22.00;;;16.77;;
69912;SDS011;57198;52.082;5.108;2022-08-19T03:41:39;23.30;;;17.20;;
69912;SDS011;57198;52.082;5.108;2022-08-19T03:44:12;22.47;;;16.83;;
69912;SDS011;57198;52.082;5.108;2022-08-19T03:46:44;22.65;;;17.45;;
69912;SDS011;57198;52.082;5.108;2022-08-19T03:49:11;23.35;;;16.30;;
69912;SDS011;57198;52.082;5.108;2022-08-19T03:51:40;21.98;;;16.77;;
69912;SDS011;57198;52.082;5.108;2022-08-19T03:54:09;24.88;;;16.70;;
69912;SDS011;57198;52.082;5.108;2022-08-19T03:56:38;19.93;;;15.33;;
69912;SDS011;57198;52.082;5.108;2022-08-19T03:59:07;23.63;;;16.50;;
69912;SDS011;57198;52.082;5.108;2022-08-19T04:01:34;19.17;;;15.13;;
69912;SDS011;57198;52.082;5.108;2022-08-19T04:04:02;19.90;;;15.02;;
69912;SDS011;57198;52.082;5.108;2022-08-19T04:06:31;21.40;;;18.65;;
69912;SDS011;57198;52.082;5.108;2022-08-19T04:09:00;25.97;;;19.70;;
69912;SDS011;57198;52.082;5.108;2022-08-19T04:11:30;27.23;;;18.80;;
69912;SDS011;57198;52.082;5.108;2022-08-19T04:14:10;22.92;;;18.20;;
69912;SDS011;57198;52.082;5.108;2022-08-19T04:16:38;26.13;;;19.15;;
69912;SDS011;57198;52.082;5.108;2022-08-19T04:19:06;23.00;;;17.73;;
69912;SDS011;57198;52.082;5.108;2022-08-19T04:21:33;20.73;;;15.37;;
69912;SDS011;57198;52.082;5.108;2022-08-19T04:24:01;18.83;;;14.93;;
69912;SDS011;57198;52.082;5.108;2022-08-19T04:26:33;16.27;;;13.23;;
69912;SDS011;57198;52.082;5.108;2022-08-19T04:29:03;23.08;;;16.75;;
69912;SDS011;57198;52.082;5.108;2022-08-19T04:31:37;23.10;;;16.13;;
69912;SDS011;57198;52.082;5.108;2022-08-19T04:34:05;22.30;;;15.77;;
69912;SDS011;57198;52.082;5.108;2022-08-19T04:36:34;21.95;;;17.90;;
69912;SDS011;57198;52.082;5.108;2022-08-19T04:39:11;25.58;;;16.77;;
69912;SDS011;57198;52.082;5.108;2022-08-19T04:41:39;25.42;;;18.92;;
69912;SDS011;57198;52.082;5.108;2022-08-19T04:44:25;22.17;;;15.93;;
69912;SDS011;57198;52.082;5.108;2022-08-19T04:46:58;21.00;;;16.27;;
69912;SDS011;57198;52.082;5.108;2022-08-19T04:49:26;24.10;;;18.38;;
69912;SDS011;57198;52.082;5.108;2022-08-19T04:51:54;27.90;;;20.85;;
69912;SDS011;57198;52.082;5.108;2022-08-19T04:54:23;31.77;;;21.15;;
69912;SDS011;57198;52.082;5.108;2022-08-19T04:57:13;26.90;;;19.67;;
69912;SDS011;57198;52.082;5.108;2022-08-19T04:59:41;28.80;;;20.00;;
69912;SDS011;57198;52.082;5.108;2022-08-19T05:02:08;31.13;;;21.30;;
69912;SDS011;57198;52.082;5.108;2022-08-19T05:04:36;37.70;;;23.67;;
69912;SDS011;57198;52.082;5.108;2022-08-19T05:07:06;33.63;;;22.75;;
69912;SDS011;57198;52.082;5.108;2022-08-19T05:09:34;36.97;;;24.65;;
69912;SDS011;57198;52.082;5.108;2022-08-19T05:12:21;34.37;;;23.50;;
69912;SDS011;57198;52.082;5.108;2022-08-19T05:14:55;38.38;;;24.13;;
69912;SDS011;57198;52.082;5.108;2022-08-19T05:17:23;39.10;;;25.35;;
69912;SDS011;57198;52.082;5.108;2022-08-19T05:19:54;41.42;;;26.15;;
69912;SDS011;57198;52.082;5.108;2022-08-19T05:22:41;39.10;;;26.10;;
69912;SDS011;57198;52.082;5.108;2022-08-19T05:25:10;42.73;;;26.10;;
69912;SDS011;57198;52.082;5.108;2022-08-19T05:27:40;39.10;;;25.95;;
69912;SDS011;57198;52.082;5.108;2022-08-19T05:30:09;41.92;;;26.00;;
69912;SDS011;57198;52.082;5.108;2022-08-19T05:32:37;45.58;;;28.83;;
69912;SDS011;57198;52.082;5.108;2022-08-19T05:35:04;42.35;;;27.88;;
69912;SDS011;57198;52.082;5.108;2022-08-19T05:37:32;44.40;;;28.50;;
69912;SDS011;57198;52.082;5.108;2022-08-19T05:39:59;42.72;;;28.20;;
69912;SDS011;57198;52.082;5.108;2022-08-19T05:42:27;42.47;;;26.20;;
69912;SDS011;57198;52.082;5.108;2022-08-19T05:44:55;47.33;;;29.60;;
69912;SDS011;57198;52.082;5.108;2022-08-19T05:47:22;47.15;;;28.73;;
69912;SDS011;57198;52.082;5.108;2022-08-19T05:49:50;45.10;;;28.60;;
69912;SDS011;57198;52.082;5.108;2022-08-19T05:52:18;46.05;;;28.20;;
69912;SDS011;57198;52.082;5.108;2022-08-19T05:54:52;46.83;;;27.50;;
69912;SDS011;57198;52.082;5.108;2022-08-19T05:57:22;47.17;;;28.88;;
69912;SDS011;57198;52.082;5.108;2022-08-19T05:59:50;46.67;;;28.52;;
69912;SDS011;57198;52.082;5.108;2022-08-19T06:02:24;46.90;;;26.17;;
69912;SDS011;57198;52.082;5.108;2022-08-19T06:04:52;48.00;;;27.90;;
69912;SDS011;57198;52.082;5.108;2022-08-19T06:07:19;47.67;;;27.98;;
69912;SDS011;57198;52.082;5.108;2022-08-19T06:09:47;45.05;;;26.45;;
69912;SDS011;57198;52.082;5.108;2022-08-19T06:12:33;47.72;;;27.20;;
69912;SDS011;57198;52.082;5.108;2022-08-19T06:15:08;51.00;;;28.17;;
69912;SDS011;57198;52.082;5.108;2022-08-19T06:17:36;59.20;;;29.67;;
69912;SDS011;57198;52.082;5.108;2022-08-19T06:20:04;55.90;;;28.85;;
69912;SDS011;57198;52.082;5.108;2022-08-19T06:22:37;51.67;;;27.42;;
69912;SDS011;57198;52.082;5.108;2022-08-19T06:25:04;58.55;;;30.67;;
69912;SDS011;57198;52.082;5.108;2022-08-19T06:27:32;66.00;;;32.53;;
69912;SDS011;57198;52.082;5.108;2022-08-19T06:30:00;69.65;;;33.30;;
69912;SDS011;57198;52.082;5.108;2022-08-19T06:32:27;66.90;;;32.90;;
69912;SDS011;57198;52.082;5.108;2022-08-19T06:34:55;64.40;;;32.15;;
69912;SDS011;57198;52.082;5.108;2022-08-19T06:37:22;65.75;;;34.47;;
69912;SDS011;57198;52.082;5.108;2022-08-19T06:39:50;62.03;;;34.67;;
69912;SDS011;57198;52.082;5.108;2022-08-19T06:42:17;67.30;;;35.30;;
69912;SDS011;57198;52.082;5.108;2022-08-19T06:44:49;54.40;;;30.85;;
69912;SDS011;57198;52.082;5.108;2022-08-19T06:47:19;67.07;;;34.70;;
69912;SDS011;57198;52.082;5.108;2022-08-19T06:49:50;69.25;;;36.08;;
69912;SDS011;57198;52.082;5.108;2022-08-19T06:52:18;67.87;;;36.13;;
69912;SDS011;57198;52.082;5.108;2022-08-19T06:54:45;60.60;;;34.47;;
69912;SDS011;57198;52.082;5.108;2022-08-19T06:57:22;66.85;;;36.60;;
69912;SDS011;57198;52.082;5.108;2022-08-19T06:59:50;63.92;;;36.90;;
69912;SDS011;57198;52.082;5.108;2022-08-19T07:02:17;65.55;;;36.67;;
69912;SDS011;57198;52.082;5.108;2022-08-19T07:04:44;66.13;;;36.93;;
69912;SDS011;57198;52.082;5.108;2022-08-19T07:07:13;65.18;;;37.13;;
69912;SDS011;57198;52.082;5.108;2022-08-19T07:09:46;60.60;;;36.03;;
69912;SDS011;57198;52.082;5.108;2022-08-19T07:12:28;63.17;;;36.25;;
69912;SDS011;57198;52.082;5.108;2022-08-19T07:15:01;62.95;;;34.33;;
69912;SDS011;57198;52.082;5.108;2022-08-19T07:17:28;55.03;;;33.57;;
69912;SDS011;57198;52.082;5.108;2022-08-19T07:19:56;55.67;;;34.53;;
69912;SDS011;57198;52.082;5.108;2022-08-19T07:22:30;53.55;;;32.22;;
69912;SDS011;57198;52.082;5.108;2022-08-19T07:24:59;53.65;;;30.20;;
69912;SDS011;57198;52.082;5.108;2022-08-19T07:27:26;53.97;;;30.92;;
69912;SDS011;57198;52.082;5.108;2022-08-19T07:29:54;50.00;;;30.77;;
69912;SDS011;57198;52.082;5.108;2022-08-19T07:32:25;50.75;;;29.17;;
69912;SDS011;57198;52.082;5.108;2022-08-19T07:34:53;47.72;;;29.25;;
69912;SDS011;57198;52.082;5.108;2022-08-19T07:37:22;51.38;;;30.55;;
69912;SDS011;57198;52.082;5.108;2022-08-19T07:39:49;52.65;;;31.40;;
69912;SDS011;57198;52.082;5.108;2022-08-19T07:42:16;51.80;;;30.43;;
69912;SDS011;57198;52.082;5.108;2022-08-19T07:44:47;52.17;;;31.08;;
69912;SDS011;57198;52.082;5.108;2022-08-19T07:47:16;58.13;;;32.40;;
69912;SDS011;57198;52.082;5.108;2022-08-19T07:50:07;52.78;;;31.77;;
69912;SDS011;57198;52.082;5.108;2022-08-19T07:52:35;57.33;;;31.50;;
69912;SDS011;57198;52.082;5.108;2022-08-19T07:55:05;53.93;;;31.60;;
69912;SDS011;57198;52.082;5.108;2022-08-19T07:57:53;53.10;;;31.35;;
69912;SDS011;57198;52.082;5.108;2022-08-19T08:00:21;48.40;;;30.98;;
69912;SDS011;57198;52.082;5.108;2022-08-19T08:02:50;48.85;;;29.48;;
69912;SDS011;57198;52.082;5.108;2022-08-19T08:05:21;48.15;;;29.73;;
69912;SDS011;57198;52.082;5.108;2022-08-19T08:08:09;50.43;;;29.30;;
69912;SDS011;57198;52.082;5.108;2022-08-19T08:11:13;48.53;;;30.65;;
69912;SDS011;57198;52.082;5.108;2022-08-19T08:13:43;47.00;;;29.95;;
69912;SDS011;57198;52.082;5.108;2022-08-19T08:16:10;52.00;;;31.15;;
69912;SDS011;57198;52.082;5.108;2022-08-19T08:18:39;48.78;;;30.63;;
69912;SDS011;57198;52.082;5.108;2022-08-19T08:21:16;46.07;;;29.70;;
69912;SDS011;57198;52.082;5.108;2022-08-19T08:23:43;50.30;;;29.88;;
69912;SDS011;57198;52.082;5.108;2022-08-19T08:26:10;43.65;;;28.30;;
69912;SDS011;57198;52.082;5.108;2022-08-19T08:28:41;40.67;;;27.95;;
69912;SDS011;57198;52.082;5.108;2022-08-19T08:31:14;45.20;;;29.83;;
69912;SDS011;57198;52.082;5.108;2022-08-19T08:33:42;38.53;;;26.13;;
69912;SDS011;57198;52.082;5.108;2022-08-19T08:36:09;37.70;;;24.38;;
69912;SDS011;57198;52.082;5.108;2022-08-19T08:38:37;35.47;;;24.35;;
69912;SDS011;57198;52.082;5.108;2022-08-19T08:43:54;31.63;;;21.98;;
69912;SDS011;57198;52.082;5.108;2022-08-19T08:46:25;33.67;;;22.17;;
69912;SDS011;57198;52.082;5.108;2022-08-19T08:51:37;33.20;;;21.92;;
69912;SDS011;57198;52.082;5.108;2022-08-19T08:54:09;35.60;;;23.88;;
69912;SDS011;57198;52.082;5.108;2022-08-19T08:56:38;36.03;;;22.02;;
69912;SDS011;57198;52.082;5.108;2022-08-19T08:59:21;35.67;;;22.53;;
69912;SDS011;57198;52.082;5.108;2022-08-19T09:01:51;30.25;;;22.38;;
69912;SDS011;57198;52.082;5.108;2022-08-19T09:04:19;31.63;;;21.98;;
69912;SDS011;57198;52.082;5.108;2022-08-19T09:07:03;32.35;;;21.25;;
69912;SDS011;57198;52.082;5.108;2022-08-19T09:09:56;30.27;;;21.20;;
69912;SDS011;57198;52.082;5.108;2022-08-19T09:12:39;32.80;;;23.67;;
69912;SDS011;57198;52.082;5.108;2022-08-19T09:15:13;35.72;;;23.70;;
69912;SDS011;57198;52.082;5.108;2022-08-19T09:17:41;36.20;;;22.45;;
69912;SDS011;57198;52.082;5.108;2022-08-19T09:22:36;34.38;;;25.10;;
69912;SDS011;57198;52.082;5.108;2022-08-19T09:25:06;33.67;;;24.50;;
69912;SDS011;57198;52.082;5.108;2022-08-19T09:27:35;33.72;;;23.90;;
69912;SDS011;57198;52.082;5.108;2022-08-19T09:30:20;31.73;;;23.73;;
69912;SDS011;57198;52.082;5.108;2022-08-19T09:32:49;36.45;;;24.45;;
69912;SDS011;57198;52.082;5.108;2022-08-19T09:35:22;34.92;;;24.50;;
69912;SDS011;57198;52.082;5.108;2022-08-19T09:37:50;39.47;;;25.93;;
69912;SDS011;57198;52.082;5.108;2022-08-19T09:40:23;34.83;;;23.02;;
69912;SDS011;57198;52.082;5.108;2022-08-19T09:42:51;36.67;;;24.10;;
69912;SDS011;57198;52.082;5.108;2022-08-19T09:45:20;34.95;;;25.13;;
69912;SDS011;57198;52.082;5.108;2022-08-19T09:47:49;28.48;;;22.83;;
69912;SDS011;57198;52.082;5.108;2022-08-19T09:50:19;32.67;;;23.27;;
69912;SDS011;57198;52.082;5.108;2022-08-19T09:52:46;36.53;;;25.05;;
69912;SDS011;57198;52.082;5.108;2022-08-19T09:55:23;34.15;;;25.63;;
69912;SDS011;57198;52.082;5.108;2022-08-19T09:57:59;33.60;;;23.38;;
69912;SDS011;57198;52.082;5.108;2022-08-19T10:00:26;32.40;;;22.60;;
69912;SDS011;57198;52.082;5.108;2022-08-19T10:02:53;32.73;;;22.50;;
69912;SDS011;57198;52.082;5.108;2022-08-19T10:05:21;29.92;;;22.98;;
69912;SDS011;57198;52.082;5.108;2022-08-19T10:08:08;30.92;;;22.30;;
69912;SDS011;57198;52.082;5.108;2022-08-19T10:10:39;32.35;;;20.40;;
69912;SDS011;57198;52.082;5.108;2022-08-19T10:13:12;31.40;;;22.20;;
69912;SDS011;57198;52.082;5.108;2022-08-19T10:15:40;30.53;;;21.07;;
69912;SDS011;57198;52.082;5.108;2022-08-19T10:18:13;29.20;;;19.27;;
69912;SDS011;57198;52.082;5.108;2022-08-19T10:20:40;28.35;;;20.95;;
69912;SDS011;57198;52.082;5.108;2022-08-19T10:23:08;26.13;;;19.85;;
69912;SDS011;57198;52.082;5.108;2022-08-19T10:25:36;29.23;;;18.92;;
69912;SDS011;57198;52.082;5.108;2022-08-19T10:28:04;31.90;;;21.43;;
69912;SDS011;57198;52.082;5.108;2022-08-19T10:30:36;30.27;;;18.70;;
69912;SDS011;57198;52.082;5.108;2022-08-19T10:33:04;32.25;;;22.20;;
69912;SDS011;57198;52.082;5.108;2022-08-19T10:35:36;32.10;;;22.77;;
69912;SDS011;57198;52.082;5.108;2022-08-19T10:38:22;36.28;;;22.50;;
69912;SDS011;57198;52.082;5.108;2022-08-19T10:40:57;36.47;;;23.87;;
69912;SDS011;57198;52.082;5.108;2022-08-19T10:43:25;31.02;;;23.30;;
69912;SDS011;57198;52.082;5.108;2022-08-19T10:45:53;34.45;;;23.70;;
69912;SDS011;57198;52.082;5.108;2022-08-19T10:48:24;37.38;;;22.63;;
69912;SDS011;57198;52.082;5.108;2022-08-19T10:50:52;32.22;;;20.80;;
69912;SDS011;57198;52.082;5.108;2022-08-19T10:53:48;30.93;;;20.83;;
69912;SDS011;57198;52.082;5.108;2022-08-19T10:56:16;28.23;;;21.30;;
69912;SDS011;57198;52.082;5.108;2022-08-19T10:59:03;31.20;;;20.08;;
69912;SDS011;57198;52.082;5.108;2022-08-19T11:01:31;26.77;;;19.17;;
69912;SDS011;57198;52.082;5.108;2022-08-19T11:04:02;25.40;;;19.80;;
69912;SDS011;57198;52.082;5.108;2022-08-19T11:06:33;26.93;;;20.03;;
69912;SDS011;57198;52.082;5.108;2022-08-19T11:09:01;27.85;;;21.83;;
69912;SDS011;57198;52.082;5.108;2022-08-19T11:11:28;29.23;;;19.60;;
69912;SDS011;57198;52.082;5.108;2022-08-19T11:13:56;29.63;;;20.88;;
69912;SDS011;57198;52.082;5.108;2022-08-19T11:16:25;29.77;;;23.38;;
69912;SDS011;57198;52.082;5.108;2022-08-19T11:18:56;40.20;;;24.03;;
69912;SDS011;57198;52.082;5.108;2022-08-19T11:21:29;29.52;;;21.63;;
69912;SDS011;57198;52.082;5.108;2022-08-19T11:23:59;30.27;;;21.52;;
69912;SDS011;57198;52.082;5.108;2022-08-19T11:26:27;32.60;;;22.15;;
69912;SDS011;57198;52.082;5.108;2022-08-19T11:28:54;31.15;;;22.33;;
69912;SDS011;57198;52.082;5.108;2022-08-19T11:31:26;31.20;;;24.23;;
69912;SDS011;57198;52.082;5.108;2022-08-19T11:33:58;32.13;;;21.70;;
69912;SDS011;57198;52.082;5.108;2022-08-19T11:36:26;31.30;;;21.63;;
69912;SDS011;57198;52.082;5.108;2022-08-19T11:38:53;30.30;;;21.35;;
69912;SDS011;57198;52.082;5.108;2022-08-19T11:41:21;22.13;;;16.88;;
69912;SDS011;57198;52.082;5.108;2022-08-19T11:43:53;16.13;;;14.43;;
69912;SDS011;57198;52.082;5.108;2022-08-19T11:46:22;16.67;;;14.00;;
69912;SDS011;57198;52.082;5.108;2022-08-19T11:48:50;18.58;;;12.50;;
69912;SDS011;57198;52.082;5.108;2022-08-19T11:51:19;14.45;;;11.98;;
69912;SDS011;57198;52.082;5.108;2022-08-19T11:53:48;12.52;;;10.48;;
69912;SDS011;57198;52.082;5.108;2022-08-19T11:56:17;13.57;;;11.17;;
69912;SDS011;57198;52.082;5.108;2022-08-19T11:58:45;11.90;;;9.38;;
69912;SDS011;57198;52.082;5.108;2022-08-19T12:01:15;12.18;;;8.43;;
69912;SDS011;57198;52.082;5.108;2022-08-19T12:03:43;11.70;;;9.13;;
69912;SDS011;57198;52.082;5.108;2022-08-19T12:06:12;11.82;;;9.27;;
69912;SDS011;57198;52.082;5.108;2022-08-19T12:08:41;15.03;;;10.47;;
69912;SDS011;57198;52.082;5.108;2022-08-19T12:11:09;19.95;;;10.82;;
69912;SDS011;57198;52.082;5.108;2022-08-19T12:13:37;13.43;;;10.32;;
69912;SDS011;57198;52.082;5.108;2022-08-19T12:16:12;12.30;;;9.52;;
69912;SDS011;57198;52.082;5.108;2022-08-19T12:18:42;16.08;;;9.65;;
69912;SDS011;57198;52.082;5.108;2022-08-19T12:21:13;11.67;;;9.33;;
69912;SDS011;57198;52.082;5.108;2022-08-19T12:23:41;11.77;;;8.90;;
69912;SDS011;57198;52.082;5.108;2022-08-19T12:26:10;12.75;;;8.50;;
69912;SDS011;57198;52.082;5.108;2022-08-19T12:28:37;10.95;;;7.03;;
69912;SDS011;57198;52.082;5.108;2022-08-19T12:31:05;10.43;;;7.85;;
69912;SDS011;57198;52.082;5.108;2022-08-19T12:33:32;11.30;;;7.50;;
69912;SDS011;57198;52.082;5.108;2022-08-19T12:36:01;9.00;;;6.75;;
69912;SDS011;57198;52.082;5.108;2022-08-19T12:38:28;9.35;;;6.85;;
69912;SDS011;57198;52.082;5.108;2022-08-19T12:40:55;9.13;;;6.43;;
69912;SDS011;57198;52.082;5.108;2022-08-19T12:43:26;10.20;;;7.47;;
69912;SDS011;57198;52.082;5.108;2022-08-19T12:45:53;10.30;;;6.43;;
69912;SDS011;57198;52.082;5.108;2022-08-19T12:48:22;12.05;;;6.53;;
69912;SDS011;57198;52.082;5.108;2022-08-19T12:50:59;8.70;;;6.10;;
69912;SDS011;57198;52.082;5.108;2022-08-19T12:53:28;11.93;;;6.50;;
69912;SDS011;57198;52.082;5.108;2022-08-19T12:55:56;10.80;;;6.13;;
69912;SDS011;57198;52.082;5.108;2022-08-19T12:58:23;9.13;;;5.70;;
69912;SDS011;57198;52.082;5.108;2022-08-19T13:00:52;7.15;;;5.30;;
69912;SDS011;57198;52.082;5.108;2022-08-19T13:03:20;8.50;;;5.43;;
69912;SDS011;57198;52.082;5.108;2022-08-19T13:05:55;6.88;;;4.78;;
69912;SDS011;57198;52.082;5.108;2022-08-19T13:08:23;6.07;;;4.25;;
69912;SDS011;57198;52.082;5.108;2022-08-19T13:10:50;8.13;;;3.93;;
69912;SDS011;57198;52.082;5.108;2022-08-19T13:13:17;5.90;;;4.20;;
69912;SDS011;57198;52.082;5.108;2022-08-19T13:15:45;8.55;;;4.85;;
69912;SDS011;57198;52.082;5.108;2022-08-19T13:18:13;9.73;;;5.15;;
69912;SDS011;57198;52.082;5.108;2022-08-19T13:20:41;10.18;;;5.05;;
69912;SDS011;57198;52.082;5.108;2022-08-19T13:23:18;6.57;;;4.40;;
69912;SDS011;57198;52.082;5.108;2022-08-19T13:25:55;7.13;;;4.32;;
69912;SDS011;57198;52.082;5.108;2022-08-19T13:28:22;7.15;;;4.25;;
69912;SDS011;57198;52.082;5.108;2022-08-19T13:30:54;7.00;;;5.20;;
69912;SDS011;57198;52.082;5.108;2022-08-19T13:33:40;7.85;;;4.93;;
69912;SDS011;57198;52.082;5.108;2022-08-19T13:36:07;6.93;;;4.80;;
69912;SDS011;57198;52.082;5.108;2022-08-19T13:38:36;6.65;;;4.50;;
69912;SDS011;57198;52.082;5.108;2022-08-19T13:41:04;5.60;;;4.35;;
69912;SDS011;57198;52.082;5.108;2022-08-19T13:43:36;5.75;;;4.15;;
69912;SDS011;57198;52.082;5.108;2022-08-19T13:46:07;5.88;;;4.75;;
69912;SDS011;57198;52.082;5.108;2022-08-19T13:48:35;6.80;;;5.27;;
69912;SDS011;57198;52.082;5.108;2022-08-19T13:51:04;5.78;;;4.80;;
69912;SDS011;57198;52.082;5.108;2022-08-19T13:53:31;5.32;;;4.45;;
69912;SDS011;57198;52.082;5.108;2022-08-19T13:55:59;6.13;;;3.92;;
69912;SDS011;57198;52.082;5.108;2022-08-19T13:58:26;5.25;;;4.38;;
69912;SDS011;57198;52.082;5.108;2022-08-19T14:00:53;6.17;;;4.70;;
69912;SDS011;57198;52.082;5.108;2022-08-19T14:03:21;6.45;;;4.10;;
69912;SDS011;57198;52.082;5.108;2022-08-19T14:05:48;5.07;;;4.05;;
69912;SDS011;57198;52.082;5.108;2022-08-19T14:08:16;7.18;;;4.53;;
69912;SDS011;57198;52.082;5.108;2022-08-19T14:10:43;5.22;;;4.10;;
69912;SDS011;57198;52.082;5.108;2022-08-19T14:13:13;4.20;;;3.67;;
69912;SDS011;57198;52.082;5.108;2022-08-19T14:15:41;7.47;;;3.70;;
69912;SDS011;57198;52.082;5.108;2022-08-19T14:18:08;3.63;;;3.33;;
69912;SDS011;57198;52.082;5.108;2022-08-19T14:20:35;4.38;;;3.80;;
69912;SDS011;57198;52.082;5.108;2022-08-19T14:23:03;4.25;;;3.53;;
69912;SDS011;57198;52.082;5.108;2022-08-19T14:25:33;4.33;;;3.93;;
69912;SDS011;57198;52.082;5.108;2022-08-19T14:28:01;6.75;;;3.95;;
69912;SDS011;57198;52.082;5.108;2022-08-19T14:30:32;4.00;;;3.63;;
69912;SDS011;57198;52.082;5.108;2022-08-19T14:33:00;4.05;;;3.67;;
69912;SDS011;57198;52.082;5.108;2022-08-19T14:35:31;3.95;;;3.65;;
69912;SDS011;57198;52.082;5.108;2022-08-19T14:38:01;3.87;;;3.43;;
69912;SDS011;57198;52.082;5.108;2022-08-19T14:40:29;3.83;;;3.53;;
69912;SDS011;57198;52.082;5.108;2022-08-19T14:42:57;3.90;;;3.60;;
69912;SDS011;57198;52.082;5.108;2022-08-19T14:45:27;4.15;;;3.63;;
69912;SDS011;57198;52.082;5.108;2022-08-19T14:47:55;3.55;;;3.25;;
69912;SDS011;57198;52.082;5.108;2022-08-19T14:50:23;3.43;;;3.13;;
69912;SDS011;57198;52.082;5.108;2022-08-19T14:52:56;3.78;;;3.40;;
69912;SDS011;57198;52.082;5.108;2022-08-19T14:55:24;3.53;;;3.22;;
69912;SDS011;57198;52.082;5.108;2022-08-19T14:57:51;4.15;;;3.75;;